Осадки, облачность и другое на юге МО

Полезные ссылки:
Метеоцентр.Азия - наш сайт с высокодетализированными прогнозами погоды по пунктам России и мира
Облегчённая версия Метеоклуба (для смартфонов)

Осадки, облачность и другое на юге МО

Сейчас в Метеоклубе:
Участников - 4 [ KAHTEMuP, Alexandross, Spasatel, Querqus ]
Максимальное одновременное количество посетителей: 6 [18 Сен 2019 00:06]
Гостей - 0 / Участников - 6

 - Начало - Ответить - Статистика - Регистрация - Поиск -
МЕТЕОКЛУБ : независимое сообщество любителей метеорологии (Европа и Азия) : ФОРУМ О ПОГОДЕ И ПРИРОДЕ / Погода вчера, сегодня, завтра / Осадки, облачность и другое на юге МО
. 1 . 2 . 3 . 4 . >>
Автор Сообщение
LESS
Участник
Письмо
Приокский лесс на юге МО
# Дата: 25 Авг 2009 13:56


Сейчас над нами плотная СК, но атм.осадков не наблюдаем.

LESS
Участник
Письмо
Приокский лесс на юге МО
# Дата: 25 Авг 2009 13:57


Melena83

У нас все время льет дождь. Уныло...

У нас сухо (без осадков). Ночью еле 1 мм осадков Кашира "наскребла". И всё!

LESS
Участник
Письмо
Приокский лесс на юге МО
# Дата: 25 Авг 2009 16:00


В Лыткарино хорошо ливануло.

P.S. misha наверное попросит объяснить, где это Лыткарино. Отвечаю: примерно в 7 км от МКАД в юго-восточном направлении, на берегу Москвы-реки.

Max_F

К С от нас наблюдаем массив плотной КД-облачности. Однако, у нас сейчас солнечно и без осадков.

Max_F
Участник
Письмо
# Дата: 25 Авг 2009 16:11


LESS
Однако, у нас сейчас солнечно и без осадков.
Во как! А тут солнце сегодня вообще не показывалось.

Meteocheburator
Участник
Письмо
Рязань
# Дата: 25 Авг 2009 16:27


У меня солнечно тоже, по востоку хорошие кд проходят.

LESS
Участник
Письмо
Приокский лесс на юге МО
# Дата: 25 Авг 2009 16:33


Max_F
Meteocheburator

Завтра осадки ожидаете в наших краях?

LESS
Участник
Письмо
Приокский лесс на юге МО
# Дата: 25 Авг 2009 20:23


MeteoLex

Barynia2006
Помнится Лесс также недавно упоминал о зарождающимся смерче, и жары тогда тоже особой не было.


Всё-таки склоняюсь к мысли, что это была облачная воронка (Funnel Cloud или как там правильно пишется): за ж\д насыпью мне не было видно, касается воронка земли или нет.

LESS
Участник
Письмо
Приокский лесс на юге МО
# Дата: 25 Авг 2009 20:30


Doof

Spasatel
)от супер-дождей во вт остались рожки да ножки (UKMO,GFS).
Все что могло вылиться,вылилось в пн.Ну и ночью может еще.

И тем не менее, петелька еще сподобилась на дожди в центре ЕТР. Вечером подведём итогию


У нас последние два часа наблюдается дождь. Интенсивность узнаем завтра (из сводок по Кашире).

LESS
Участник
Письмо
Приокский лесс на юге МО
# Дата: 25 Авг 2009 21:23 - Поправил: LESS


Barynia2006

Да, я отличаю грозовые валы и смерчи... Сегодня был слабый смерч.
Но он был!!!


Что-то подобное у вас сегодня наблюдалось, да?
http://mreporter.ru/ReporterMessages!viewReport.do ?reportid=10355

Или что-то вроде этой видеозаписи:

http://www.liveinternet.ru/users/ledi_flashka/post 46411551/

LESS
Участник
Письмо
Приокский лесс на юге МО
# Дата: 26 Авг 2009 12:08


У нас сегодня августовкий день "по Саммеру" (этот участник первым "задекларировал" такого типа летние дни в МО: сутра наблюдается ясное небо и солнечное сияние, однако к обеду набегает кучевая баллов 5...6, а то и плотнее).

Сейчас набежало балла 4 кучёвки. Красивый пейзаж!

LESS
Участник
Письмо
Приокский лесс на юге МО
# Дата: 27 Авг 2009 14:24


Сегодня в шесть утра наблюдал замечательное облако (что-то вроде расплывшегося перистого в верхнем ярусе). Оно было протяжённое (от п.Михнево до г.Видное, т.е. до МКАДа), но с юга МО смотрелось как спускающееся до земли нечто с пальмовидными верхушаки к небу.

И весь маршрут моего следования с юга МО до МКАД можно было наблюдать данное облако.

Вообщем, теперь прекрасно представляю, в какой части неба и что мне видно на юге Москвы из своего лесса (если только известна высота облаков над столицей).

Т.е. облако, начинающееся за 100 км от меня, в верхнем ярусе, видно с земли просто замечательно!

Вот любопытно, в телескоп наблюдение улучшится?

Front
Участник
Письмо
Москва
# Дата: 27 Авг 2009 14:31


LESS
И весь маршрут моего следования с юга МО до МКАД можно было наблюдать данное облако.
Вы уже назад вернулись в лесс? Оно до сих пор не исчезло? Может радиационное какой-нибудь из ТЕЦ-а?

LESS
Участник
Письмо
Приокский лесс на юге МО
# Дата: 27 Авг 2009 16:08


Front

Вы уже назад вернулись в лесс?

Вернулся. С пяти утра вот обернулся.

Оно до сих пор не исчезло?

Безусловно исчезло. С чего Вы решили, что оно наблюдалось мною и на обратном пути из Москвы на юг МО?

Может радиационное какой-нибудь из ТЕЦ-а?

ТЭЦ там рядом как раз в г.Жуковский есть. Мне лично без разницы, откуда облако: главное, что теперь мне известны координаты ориентиров на облачном небе и их удалённость от меня (в случае, если известна высота их подъёма над землей).

Front
Участник
Письмо
Москва
# Дата: 27 Авг 2009 16:13 - Поправил: Front


ТЭЦ там рядом как раз в г.Жуковский есть. Мне лично без разницы, откуда облако
Интересно также не только ИМХО координаты ориентиров на облачном небе, но само происхождение таких облаков в наше экологически нечистое время:-(
LESS
С чего Вы решили, что оно наблюдалось мною и на обратном пути из Москвы на юг МО?
Ну Вы же не написали об этом.

LESS
Участник
Письмо
Приокский лесс на юге МО
# Дата: 27 Авг 2009 17:32


Последние полчаса к С-СЗ от нас всё небо тёмно-синее (сплошная КД-облачность). И всё это медленно надвигается на наш лесс на юге МО.

Какие будут прогнозы? Дождь? Сильный? Продолжительный?

LESS
Участник
Письмо
Приокский лесс на юге МО
# Дата: 27 Авг 2009 20:40


У нас красивейший закат: из-под края тёмно-синего покрывала сплошной облачности сияет малиновым светом диск Солнца.

LESS
Участник
Письмо
Приокский лесс на юге МО
# Дата: 28 Авг 2009 12:53


Melena83
Но зато вместо вчерашних +2,5 сегодня +16,5!
Ну и контрасты у вас, в Раменском сегодня Тмин +13.4. Тепло и Солнце в дальнейшем? Сегодня днем облачно будет и дождь, к вечеру прояснится.

Meteocheburator
У меня ночь была тёплой тмин. +15. Сейчас пасмурно, на небе плотная облачность, обошлось без осадков.

Какие замечательные вечер, ночь и утро в погодном плане у нас наблюдались! Тихо (штиль). И тепло! (Серпухов: Тмин за ночь +14.5* С).

Такая благодать в природе в это время года, когда нет ветра и на небе сплошное покрывало СК!

Такая погода случается на юге (у моря). Там, правда, Твозд бывает повыше...

LESS
Участник
Письмо
Приокский лесс на юге МО
# Дата: 1 Сен 2009 09:10


Над нами сутра сплошное покрывало вытянутых СК, в которых только что появился крохотный ультрамариновый просвет чистого неба. Процесс пошёл (с).

LESS
Участник
Письмо
Приокский лесс на юге МО
# Дата: 1 Сен 2009 13:35 - Поправил: LESS


Morozov_S

Можно следующим летом проводить мониторинг отдельных мощных КДО силами участников метеоклуба.

Невероятно, но дожидаться следующего лета не пришлось!

У нас сейчас просто замечательная син.ситуация для подобных замерочных наблюдений!

Ведущий поток: слабый.
Горизонтальная видимость: 40 км.
Прозрачность ВМ: высокая.
Облачность на небе: квазистатичная (почти неподвижная).
Приземный ветер: "полный" штиль (тихо)

UUDD 312330Z 00000MPS 8000 BKN100 12/12 Q1022 NOSIG=
UUDD 312300Z 00000MPS 8000 BKN100 12/12 Q1022 NOSIG=
UUDD 312230Z 00000MPS 8000 BKN100 13/12 Q1022 NOSIG=
UUDD 312200Z 00000MPS 8000 FEW040 OVC100 13/12 Q1022 NOSIG=
UUDD 312130Z 00000MPS 8000 OVC100 13/12 Q1022 NOSIG=
UUDD 312100Z 00000MPS 8000 OVC100 13/12 Q1022 NOSIG=
UUDD 312030Z 00000MPS 9999 -RA OVC100 13/12 Q1021 NOSIG=
UUDD 312000Z 00000MPS CAVOK 13/12 Q1021 NOSIG=

Итак. В северной (от нас) части неба следующая облачная картина.

Тонкий слой сплошного облачного (СК) покрывала в паре десятков километров на север от нас оканчивает. За его ровным краем начинается ясное небо. И лишь на горизонте (в секторе около 100* по горизонту - с северо-запада до востока) виднеется сплошной массив кучевых облаков, белые вершины которых сияют в солнечном свете.

Попробуем посмотреть, где этот облачный массив (гряда кучевой облачности) сейчас распложен (картина на небе не меняется с 11 утра).

Вечером доберусь до скоростного инета и посмотрю фотографии облачности на разных сайтах. Сейчас же можно заглянуть на http://smis.iki.rssi.ru/dataserv/rus_ms/w_msc_r.ht m

Вот фото, сделанное сегодня в 11:45 МСК http://smis.iki.rssi.ru/data/wmaps/moscow/last1ir. gif

Виден край облачного массива (СК, северный край). А вот где тот массив, что наблюдается за ним?!

LESS
Участник
Письмо
Приокский лесс на юге МО
# Дата: 1 Сен 2009 13:39


Дата: 1 Сен 2009 12:59
slava31

в Монино появились кучевые облака, баллов на 5,Тмакс к 12-50 +19,4°-вообщем лето наступило в сентябре


Так. Где ещё в столице и Ближнем Подмосковье наблюдается кучёвка?

slava31
Участник
Письмо
Лиски
# Дата: 1 Сен 2009 14:09 - Поправил: slava31


LESS
сделайте снимки облачности в 14-25, в это время спутник от модис будет пролетать над ЦФО и тогда можно будет чеез гугл ерс определить наблюдаемые облака и расстояние до них вычислить

LESS
Участник
Письмо
Приокский лесс на юге МО
# Дата: 1 Сен 2009 15:18


slava31

Не поверите: картина облачности на небе настолько статична, что за минувшие три часа ничего (!) не изменилось!

Да, по МОДИСу Гугл Планета Земля вечером всё укажу с точностью до метра. Ссылку ещё раз на МОДИС не подскажете?

LESS
Участник
Письмо
Приокский лесс на юге МО
# Дата: 1 Сен 2009 16:14


Вот здесь можно посмотреть: http://www.hobitus.com/noaa/fullsize/noaa-18-09011 350-hvct-precip.jpg

Похоже, это те группы кучевых облаков, которые видны на снимке в южной части столицы.

Meteocheburator
Участник
Письмо
Рязань
# Дата: 1 Сен 2009 16:44 - Поправил: Meteocheburator


А у меня облачность уже прояснятся стала, даже солнце появляется, но я в Рязани.

LESS
Участник
Письмо
Приокский лесс на юге МО
# Дата: 1 Сен 2009 16:51


Meteocheburator

Скорее не проясняться стало, а Солнце по небосводу "доползло" до той точки, откуда его лучи беспрепятственно (в обход "застывших" на небе облаков) достигают поверхности Земли.

Konstantin
Участник
Письмо
Москва, ЮЗАО
# Дата: 1 Сен 2009 17:02


LESS
smis.iki часто не замечает некоторые виды облачности.
hobitus имеет слишком мелкий масштаб.
Облачность по МО лучше видно видна здесь: http://www.sat24.nl/homepage.aspx?html=zoom&xas=56 0&yas=100

Konstantin
Участник
Письмо
Москва, ЮЗАО
# Дата: 1 Сен 2009 17:03


В настоящее время только над южными-юго-восточными районами есть облака, да и те быстро тают.

slava31
Участник
Письмо
Лиски
# Дата: 1 Сен 2009 19:11 - Поправил: slava31


фото с космоса в 12-35
http://photofile.ru/users/slava31/115418989/130675 985/full_image/

фото с земли в Монино в 12-47 вид на юг

http://photofile.ru/users/slava31/115418989/130675 506/full_image/
вдали видна верхняя облачность и гугл-земля показал расстояние 45 км до нее

slava31
Участник
Письмо
Лиски
# Дата: 1 Сен 2009 19:30


фото с космоса в 14-25
http://photofile.ru/users/slava31/115418989/130676 406/full_image/

фото с земли в Монино в 14-25 вид на юг
http://photofile.ru/users/slava31/115418989/130675 510/full_image/

LESS
Участник
Письмо
Приокский лесс на юге МО
# Дата: 1 Сен 2009 22:51


Огромное спасибо за ссылки и фото.

Намерил 80 км по карте! (что весьма соответствует действительности в виде предыдущих мобильных наблюдений). Итого: при благоприятных метеоусловиях мне видна облачность верхнего и среднего ярусов над югом Москвы и южным сектором (с ЮЗ до ЮВ) Ближнего Подмосковья!

. 1 . 2 . 3 . 4 . >>
Ваш ответ

          Отменить *Что это?

 » Логин  » Пароль